Detall de PIREP

Printer-friendly versionPDF version

[2014/12/30 10:36:00]
Flight IATA:CT1004
Pilot Number:012
Company ICAO:CAT
Aircraft Type:F70/A
PAX:79
Aircraft Registration:PFJ
Departing Airport: LIEA
Destination Airport: LOWI
Alternate Airport:LOWS
Online: VATSIM
Route:GOPAT UL978 OKBON UN851 TORTU UM858 GEN UM985 TAGIP UT876 OGEPI UM726 BRENO
Flight Level:F340
No Slew and time accel
No pause
Crash detect
Detect pilot in Cockpit between each 30 and 45 minutes
10:36 Zero fuel Weight: 71073 Lbs, Fuel Weight: 10892 Lbs
10:36 VATSIM:LIEA 301020Z 06013G23KT 9999 FEW020 09/M01 Q1027
10:36 VATSIM:LOWI 301020Z 07003KT 040V110 1700 R08/P1500N R26/1500U SN FEW003 SCT010 BKN017 M04/M05 Q1031 R08/19//95 TEMPO 1200 SHSN BKN014
10:36 X-MAS CHARTER
10:37 Parking Brakes off
10:41 Take-off
10:41 Take off Weight: 81665 Lbs
10:41 Wind: 058º @ 016 Knots Heading: 024º
10:41 POS N40º 37´ 44´´ E008º 17´ 21´´
10:41 Gear Up: 148 Knots
10:41 Flaps:2 at 148 Knots
10:42 Flaps:1 at 170 Knots
10:42 Flaps:0 at 189 Knots
10:56 Wind:034º@092 Knots Heading: 008º Ground Speed: 253 Knots Altitude 33841 ft
10:56 TOC
10:56 Fuel Weight: 8778 Lb
11:11 Wind:030º@094 Knots Heading: 024º Ground Speed: 334 Knots Altitude 34419 ft
11:26 Wind:028º@095 Knots Heading: 009º Ground Speed: 338 Knots Altitude 34435 ft
11:41 Wind:032º@084 Knots Heading: 031º Ground Speed: 339 Knots Altitude 34455 ft
11:47 TOD
11:47 Fuel Weight: 5079 Lb
11:47 TOC
11:47 Fuel Weight: 5076 Lb
11:48 TOD
11:48 Fuel Weight: 4991 Lb
11:48 TOC
11:48 Fuel Weight: 4987 Lb
11:49 TOD
11:49 Fuel Weight: 4966 Lb
11:56 Wind:024º@077 Knots Heading: 025º Ground Speed: 282 Knots Altitude 20836 ft
12:03 Flaps:1 at 221 Knots
12:11 Wind:311º@007 Knots Heading: 057º Ground Speed: 222 Knots Altitude 9963 ft
12:13 Flaps:2 at 181 Knots
12:14 Gear Down: 176 Knots
12:18 Flaps:3 at 142 Knots
12:18 Flaps:4 at 119 Knots
12:26 Wind:354º@002 Knots Heading: 258º Ground Speed: 116 Knots Altitude 3356 ft
12:27 TouchDown:Rate -421 ft/min Speed: 102 Knots
12:27 Flaps:2 at 82 Knots
12:27 Flaps:0 at 76 Knots
12:28 VATSIM:LOWI 301150Z VRB02KT 1500 R08/1500N R26/1100N SN FEW003 SCT010 BKN020 M04/M05 Q1030 R08/19//95 NOSIG
12:28 Land
12:28 Wind:357º@002 Knots
12:28 Heading: 264º
12:28 Flight Duration: 01:47
12:28 Landing Weight: 73625 Lbs
12:28 POS N47º 15´ 35´´ E011º 20´ 24´´
12:30 Parking brakes on
12:30 Block to Block Duration: 01:53
12:30 Final Fuel: 2460 Lbls
12:30 Spent Fuel: 8432 Lbls
12:30 Flight Length: 500 NM
12:30 TOD Land Length: 137 NM

Exportar CSV

Powered by Drupal - Modified by Danger4k